sensor_id;sensor_type;location;lat;lon;timestamp;P1;durP1;ratioP1;P2;durP2;ratioP2
65071;SDS011;51663;52.310;17.016;2022-11-15T00:01:15;63.27;;;34.57;;
65071;SDS011;51663;52.310;17.016;2022-11-15T00:04:19;64.27;;;36.53;;
65071;SDS011;51663;52.310;17.016;2022-11-15T00:07:21;64.33;;;35.90;;
65071;SDS011;51663;52.310;17.016;2022-11-15T00:10:53;65.70;;;35.33;;
65071;SDS011;51663;52.310;17.016;2022-11-15T00:13:57;68.93;;;36.33;;
65071;SDS011;51663;52.310;17.016;2022-11-15T00:16:59;67.37;;;35.60;;
65071;SDS011;51663;52.310;17.016;2022-11-15T00:20:02;68.73;;;36.37;;
65071;SDS011;51663;52.310;17.016;2022-11-15T00:23:04;63.60;;;35.83;;
65071;SDS011;51663;52.310;17.016;2022-11-15T00:26:07;65.73;;;36.23;;
65071;SDS011;51663;52.310;17.016;2022-11-15T00:29:15;64.33;;;36.73;;
65071;SDS011;51663;52.310;17.016;2022-11-15T00:32:17;66.20;;;36.97;;
65071;SDS011;51663;52.310;17.016;2022-11-15T00:35:19;62.60;;;35.37;;
65071;SDS011;51663;52.310;17.016;2022-11-15T00:38:21;69.93;;;37.33;;
65071;SDS011;51663;52.310;17.016;2022-11-15T00:41:23;67.63;;;36.97;;
65071;SDS011;51663;52.310;17.016;2022-11-15T00:44:25;64.57;;;35.97;;
65071;SDS011;51663;52.310;17.016;2022-11-15T00:47:27;69.67;;;37.23;;
65071;SDS011;51663;52.310;17.016;2022-11-15T00:50:30;66.90;;;36.83;;
65071;SDS011;51663;52.310;17.016;2022-11-15T00:53:31;69.57;;;37.23;;
65071;SDS011;51663;52.310;17.016;2022-11-15T00:56:34;65.67;;;36.53;;
65071;SDS011;51663;52.310;17.016;2022-11-15T00:59:36;70.83;;;37.60;;
65071;SDS011;51663;52.310;17.016;2022-11-15T01:02:38;74.77;;;38.10;;
65071;SDS011;51663;52.310;17.016;2022-11-15T01:05:41;73.70;;;38.77;;
65071;SDS011;51663;52.310;17.016;2022-11-15T01:08:43;67.60;;;36.93;;
65071;SDS011;51663;52.310;17.016;2022-11-15T01:11:45;69.03;;;36.17;;
65071;SDS011;51663;52.310;17.016;2022-11-15T01:14:47;72.30;;;38.53;;
65071;SDS011;51663;52.310;17.016;2022-11-15T01:17:49;73.83;;;37.73;;
65071;SDS011;51663;52.310;17.016;2022-11-15T01:20:51;70.77;;;38.97;;
65071;SDS011;51663;52.310;17.016;2022-11-15T01:23:53;74.20;;;39.17;;
65071;SDS011;51663;52.310;17.016;2022-11-15T01:26:57;81.13;;;40.30;;
65071;SDS011;51663;52.310;17.016;2022-11-15T01:29:58;80.47;;;40.37;;
65071;SDS011;51663;52.310;17.016;2022-11-15T01:33:01;72.03;;;40.07;;
65071;SDS011;51663;52.310;17.016;2022-11-15T01:36:03;76.80;;;40.30;;
65071;SDS011;51663;52.310;17.016;2022-11-15T01:39:07;75.50;;;41.13;;
65071;SDS011;51663;52.310;17.016;2022-11-15T01:42:12;72.10;;;37.93;;
65071;SDS011;51663;52.310;17.016;2022-11-15T01:45:15;73.17;;;38.53;;
65071;SDS011;51663;52.310;17.016;2022-11-15T01:48:17;73.73;;;38.13;;
65071;SDS011;51663;52.310;17.016;2022-11-15T01:51:20;72.50;;;38.17;;
65071;SDS011;51663;52.310;17.016;2022-11-15T01:54:25;71.70;;;37.43;;
65071;SDS011;51663;52.310;17.016;2022-11-15T01:57:28;76.87;;;39.47;;
65071;SDS011;51663;52.310;17.016;2022-11-15T02:00:30;71.53;;;40.07;;
65071;SDS011;51663;52.310;17.016;2022-11-15T02:03:39;71.77;;;38.73;;
65071;SDS011;51663;52.310;17.016;2022-11-15T02:06:47;68.73;;;37.80;;
65071;SDS011;51663;52.310;17.016;2022-11-15T02:09:51;67.57;;;37.80;;
65071;SDS011;51663;52.310;17.016;2022-11-15T02:12:55;64.03;;;38.47;;
65071;SDS011;51663;52.310;17.016;2022-11-15T02:26:37;58.10;;;35.13;;
65071;SDS011;51663;52.310;17.016;2022-11-15T02:36:41;65.30;;;33.93;;
65071;SDS011;51663;52.310;17.016;2022-11-15T02:43:07;59.13;;;32.17;;
65071;SDS011;51663;52.310;17.016;2022-11-15T02:50:09;59.23;;;32.03;;
65071;SDS011;51663;52.310;17.016;2022-11-15T02:53:13;53.30;;;31.10;;
65071;SDS011;51663;52.310;17.016;2022-11-15T02:56:16;53.70;;;31.93;;
65071;SDS011;51663;52.310;17.016;2022-11-15T03:02:33;66.27;;;32.97;;
65071;SDS011;51663;52.310;17.016;2022-11-15T03:12:42;54.07;;;33.07;;
65071;SDS011;51663;52.310;17.016;2022-11-15T03:16:02;58.00;;;32.73;;
65071;SDS011;51663;52.310;17.016;2022-11-15T03:19:12;49.47;;;30.30;;
65071;SDS011;51663;52.310;17.016;2022-11-15T03:22:22;51.53;;;31.30;;
65071;SDS011;51663;52.310;17.016;2022-11-15T03:25:28;59.93;;;29.73;;
65071;SDS011;51663;52.310;17.016;2022-11-15T03:28:37;58.03;;;30.57;;
65071;SDS011;51663;52.310;17.016;2022-11-15T03:31:45;50.87;;;29.17;;
65071;SDS011;51663;52.310;17.016;2022-11-15T03:41:29;49.80;;;30.50;;
65071;SDS011;51663;52.310;17.016;2022-11-15T03:44:46;68.07;;;32.87;;
65071;SDS011;51663;52.310;17.016;2022-11-15T03:48:10;57.47;;;33.13;;
65071;SDS011;51663;52.310;17.016;2022-11-15T03:51:17;59.70;;;33.90;;
65071;SDS011;51663;52.310;17.016;2022-11-15T03:54:20;63.50;;;34.53;;
65071;SDS011;51663;52.310;17.016;2022-11-15T03:57:22;61.03;;;35.43;;
65071;SDS011;51663;52.310;17.016;2022-11-15T04:00:24;65.37;;;37.23;;
65071;SDS011;51663;52.310;17.016;2022-11-15T04:03:26;71.40;;;37.03;;
65071;SDS011;51663;52.310;17.016;2022-11-15T04:06:29;71.70;;;37.40;;
65071;SDS011;51663;52.310;17.016;2022-11-15T04:09:31;84.50;;;39.37;;
65071;SDS011;51663;52.310;17.016;2022-11-15T04:12:34;75.13;;;37.43;;
65071;SDS011;51663;52.310;17.016;2022-11-15T04:15:38;66.37;;;37.40;;
65071;SDS011;51663;52.310;17.016;2022-11-15T04:18:40;65.37;;;37.00;;
65071;SDS011;51663;52.310;17.016;2022-11-15T04:21:44;82.97;;;39.13;;
65071;SDS011;51663;52.310;17.016;2022-11-15T04:25:05;74.13;;;37.23;;
65071;SDS011;51663;52.310;17.016;2022-11-15T04:28:07;59.50;;;34.50;;
65071;SDS011;51663;52.310;17.016;2022-11-15T04:31:09;61.70;;;36.97;;
65071;SDS011;51663;52.310;17.016;2022-11-15T04:34:11;69.37;;;37.13;;
65071;SDS011;51663;52.310;17.016;2022-11-15T04:37:15;72.57;;;35.80;;
65071;SDS011;51663;52.310;17.016;2022-11-15T04:40:17;58.20;;;35.13;;
65071;SDS011;51663;52.310;17.016;2022-11-15T04:43:20;68.03;;;37.27;;
65071;SDS011;51663;52.310;17.016;2022-11-15T04:46:22;65.63;;;37.43;;
65071;SDS011;51663;52.310;17.016;2022-11-15T04:49:25;75.03;;;36.40;;
65071;SDS011;51663;52.310;17.016;2022-11-15T04:52:27;66.47;;;35.27;;
65071;SDS011;51663;52.310;17.016;2022-11-15T04:55:29;66.47;;;35.97;;
65071;SDS011;51663;52.310;17.016;2022-11-15T04:58:31;65.97;;;35.50;;
65071;SDS011;51663;52.310;17.016;2022-11-15T05:01:36;69.27;;;35.00;;
65071;SDS011;51663;52.310;17.016;2022-11-15T05:04:44;59.47;;;34.67;;
65071;SDS011;51663;52.310;17.016;2022-11-15T05:07:47;64.50;;;34.03;;
65071;SDS011;51663;52.310;17.016;2022-11-15T05:10:48;73.40;;;37.23;;
65071;SDS011;51663;52.310;17.016;2022-11-15T05:13:53;58.57;;;33.90;;
65071;SDS011;51663;52.310;17.016;2022-11-15T05:16:55;67.73;;;35.90;;
65071;SDS011;51663;52.310;17.016;2022-11-15T05:19:57;55.10;;;33.77;;
65071;SDS011;51663;52.310;17.016;2022-11-15T05:22:59;70.33;;;36.83;;
65071;SDS011;51663;52.310;17.016;2022-11-15T05:26:02;70.13;;;37.67;;
65071;SDS011;51663;52.310;17.016;2022-11-15T05:29:09;66.53;;;37.33;;
65071;SDS011;51663;52.310;17.016;2022-11-15T05:32:12;75.43;;;37.07;;
65071;SDS011;51663;52.310;17.016;2022-11-15T05:35:19;68.07;;;36.70;;
65071;SDS011;51663;52.310;17.016;2022-11-15T05:38:33;68.47;;;36.87;;
65071;SDS011;51663;52.310;17.016;2022-11-15T05:41:36;77.73;;;37.10;;
65071;SDS011;51663;52.310;17.016;2022-11-15T05:44:46;73.97;;;37.33;;
65071;SDS011;51663;52.310;17.016;2022-11-15T05:47:50;78.37;;;38.33;;
65071;SDS011;51663;52.310;17.016;2022-11-15T05:50:53;76.17;;;37.93;;
65071;SDS011;51663;52.310;17.016;2022-11-15T05:53:56;74.17;;;37.77;;
65071;SDS011;51663;52.310;17.016;2022-11-15T05:57:00;72.67;;;39.97;;
65071;SDS011;51663;52.310;17.016;2022-11-15T06:00:02;76.60;;;38.50;;
65071;SDS011;51663;52.310;17.016;2022-11-15T06:03:08;76.17;;;40.40;;
65071;SDS011;51663;52.310;17.016;2022-11-15T06:06:10;79.27;;;41.00;;
65071;SDS011;51663;52.310;17.016;2022-11-15T06:09:17;86.10;;;40.93;;
65071;SDS011;51663;52.310;17.016;2022-11-15T06:12:19;73.83;;;41.40;;
65071;SDS011;51663;52.310;17.016;2022-11-15T06:15:21;85.03;;;41.53;;
65071;SDS011;51663;52.310;17.016;2022-11-15T06:18:23;75.40;;;41.00;;
65071;SDS011;51663;52.310;17.016;2022-11-15T06:21:25;74.63;;;40.20;;
65071;SDS011;51663;52.310;17.016;2022-11-15T06:24:29;74.63;;;40.83;;
65071;SDS011;51663;52.310;17.016;2022-11-15T06:27:31;69.50;;;37.43;;
65071;SDS011;51663;52.310;17.016;2022-11-15T06:30:33;73.73;;;38.50;;
65071;SDS011;51663;52.310;17.016;2022-11-15T06:33:35;72.67;;;39.23;;
65071;SDS011;51663;52.310;17.016;2022-11-15T06:36:38;79.13;;;40.23;;
65071;SDS011;51663;52.310;17.016;2022-11-15T06:39:45;77.13;;;39.93;;
65071;SDS011;51663;52.310;17.016;2022-11-15T06:42:47;77.57;;;41.20;;
65071;SDS011;51663;52.310;17.016;2022-11-15T06:45:49;86.73;;;42.23;;
65071;SDS011;51663;52.310;17.016;2022-11-15T06:48:54;70.73;;;39.93;;
65071;SDS011;51663;52.310;17.016;2022-11-15T06:51:56;75.70;;;38.50;;
65071;SDS011;51663;52.310;17.016;2022-11-15T06:54:58;72.10;;;37.30;;
65071;SDS011;51663;52.310;17.016;2022-11-15T06:58:01;67.90;;;35.40;;
65071;SDS011;51663;52.310;17.016;2022-11-15T07:01:04;54.43;;;31.77;;
65071;SDS011;51663;52.310;17.016;2022-11-15T07:04:08;55.77;;;32.13;;
65071;SDS011;51663;52.310;17.016;2022-11-15T07:07:11;51.73;;;30.77;;
65071;SDS011;51663;52.310;17.016;2022-11-15T07:10:14;59.00;;;33.03;;
65071;SDS011;51663;52.310;17.016;2022-11-15T07:13:17;57.30;;;32.73;;
65071;SDS011;51663;52.310;17.016;2022-11-15T07:16:19;60.37;;;31.83;;
65071;SDS011;51663;52.310;17.016;2022-11-15T07:19:21;56.57;;;31.77;;
65071;SDS011;51663;52.310;17.016;2022-11-15T07:22:24;73.63;;;35.20;;
65071;SDS011;51663;52.310;17.016;2022-11-15T07:25:26;52.57;;;30.30;;
65071;SDS011;51663;52.310;17.016;2022-11-15T07:28:28;57.87;;;31.40;;
65071;SDS011;51663;52.310;17.016;2022-11-15T07:31:30;54.43;;;30.67;;
65071;SDS011;51663;52.310;17.016;2022-11-15T07:34:32;58.63;;;31.47;;
65071;SDS011;51663;52.310;17.016;2022-11-15T07:37:34;48.37;;;29.73;;
65071;SDS011;51663;52.310;17.016;2022-11-15T07:40:38;54.60;;;32.37;;
65071;SDS011;51663;52.310;17.016;2022-11-15T07:43:40;52.87;;;31.40;;
65071;SDS011;51663;52.310;17.016;2022-11-15T07:46:42;49.97;;;29.70;;
65071;SDS011;51663;52.310;17.016;2022-11-15T07:49:44;53.17;;;31.83;;
65071;SDS011;51663;52.310;17.016;2022-11-15T07:52:47;51.97;;;31.30;;
65071;SDS011;51663;52.310;17.016;2022-11-15T07:55:54;57.87;;;31.67;;
65071;SDS011;51663;52.310;17.016;2022-11-15T07:58:56;49.10;;;30.40;;
65071;SDS011;51663;52.310;17.016;2022-11-15T08:02:00;52.93;;;30.20;;
65071;SDS011;51663;52.310;17.016;2022-11-15T08:05:03;53.00;;;32.43;;
65071;SDS011;51663;52.310;17.016;2022-11-15T08:08:06;53.30;;;33.13;;
65071;SDS011;51663;52.310;17.016;2022-11-15T08:11:09;57.20;;;33.47;;
65071;SDS011;51663;52.310;17.016;2022-11-15T08:14:11;59.27;;;34.33;;
65071;SDS011;51663;52.310;17.016;2022-11-15T08:17:14;55.40;;;32.77;;
65071;SDS011;51663;52.310;17.016;2022-11-15T08:20:16;61.97;;;35.77;;
65071;SDS011;51663;52.310;17.016;2022-11-15T08:23:18;59.93;;;33.90;;
65071;SDS011;51663;52.310;17.016;2022-11-15T08:26:20;60.20;;;34.50;;
65071;SDS011;51663;52.310;17.016;2022-11-15T08:29:23;57.27;;;33.87;;
65071;SDS011;51663;52.310;17.016;2022-11-15T08:32:25;56.37;;;33.47;;
65071;SDS011;51663;52.310;17.016;2022-11-15T08:35:27;56.20;;;34.87;;
65071;SDS011;51663;52.310;17.016;2022-11-15T08:38:30;60.13;;;33.70;;
65071;SDS011;51663;52.310;17.016;2022-11-15T08:41:34;55.53;;;33.73;;
65071;SDS011;51663;52.310;17.016;2022-11-15T08:44:38;57.93;;;33.33;;
65071;SDS011;51663;52.310;17.016;2022-11-15T08:47:40;58.37;;;35.73;;
65071;SDS011;51663;52.310;17.016;2022-11-15T08:50:43;59.67;;;34.70;;
65071;SDS011;51663;52.310;17.016;2022-11-15T08:53:46;58.43;;;36.43;;
65071;SDS011;51663;52.310;17.016;2022-11-15T08:56:48;61.93;;;36.37;;
65071;SDS011;51663;52.310;17.016;2022-11-15T08:59:50;65.33;;;37.87;;
65071;SDS011;51663;52.310;17.016;2022-11-15T09:02:52;66.77;;;37.77;;
65071;SDS011;51663;52.310;17.016;2022-11-15T09:05:55;67.47;;;38.63;;
65071;SDS011;51663;52.310;17.016;2022-11-15T09:08:58;64.67;;;38.93;;
65071;SDS011;51663;52.310;17.016;2022-11-15T09:12:02;67.37;;;38.23;;
65071;SDS011;51663;52.310;17.016;2022-11-15T09:15:05;63.47;;;37.93;;
65071;SDS011;51663;52.310;17.016;2022-11-15T09:18:10;71.30;;;39.70;;
65071;SDS011;51663;52.310;17.016;2022-11-15T09:21:12;68.77;;;39.83;;
65071;SDS011;51663;52.310;17.016;2022-11-15T09:24:14;68.67;;;40.13;;
65071;SDS011;51663;52.310;17.016;2022-11-15T09:27:16;64.83;;;39.30;;
65071;SDS011;51663;52.310;17.016;2022-11-15T09:30:18;66.03;;;39.87;;
65071;SDS011;51663;52.310;17.016;2022-11-15T09:33:20;66.00;;;39.10;;
65071;SDS011;51663;52.310;17.016;2022-11-15T09:36:23;69.43;;;38.80;;
65071;SDS011;51663;52.310;17.016;2022-11-15T09:39:25;60.77;;;37.40;;
65071;SDS011;51663;52.310;17.016;2022-11-15T09:49:22;64.73;;;38.27;;
65071;SDS011;51663;52.310;17.016;2022-11-15T09:52:25;62.83;;;37.37;;
65071;SDS011;51663;52.310;17.016;2022-11-15T09:55:39;63.00;;;38.23;;
65071;SDS011;51663;52.310;17.016;2022-11-15T10:05:20;63.37;;;37.43;;
65071;SDS011;51663;52.310;17.016;2022-11-15T10:09:27;58.87;;;36.57;;
65071;SDS011;51663;52.310;17.016;2022-11-15T10:12:00;64.97;;;38.73;;
65071;SDS011;51663;52.310;17.016;2022-11-15T10:15:04;59.50;;;36.97;;
65071;SDS011;51663;52.310;17.016;2022-11-15T10:24:47;61.10;;;37.97;;
65071;SDS011;51663;52.310;17.016;2022-11-15T10:31:29;61.37;;;37.00;;
65071;SDS011;51663;52.310;17.016;2022-11-15T10:34:35;64.20;;;37.80;;
65071;SDS011;51663;52.310;17.016;2022-11-15T10:37:39;61.10;;;37.50;;
65071;SDS011;51663;52.310;17.016;2022-11-15T10:40:41;61.27;;;38.60;;
65071;SDS011;51663;52.310;17.016;2022-11-15T10:44:09;62.70;;;38.07;;
65071;SDS011;51663;52.310;17.016;2022-11-15T10:47:26;65.63;;;38.33;;
65071;SDS011;51663;52.310;17.016;2022-11-15T10:50:43;59.50;;;38.10;;
65071;SDS011;51663;52.310;17.016;2022-11-15T10:53:50;61.90;;;39.30;;
65071;SDS011;51663;52.310;17.016;2022-11-15T10:56:54;80.70;;;52.47;;
65071;SDS011;51663;52.310;17.016;2022-11-15T11:03:57;55.97;;;36.67;;
65071;SDS011;51663;52.310;17.016;2022-11-15T11:07:08;65.33;;;38.53;;
65071;SDS011;51663;52.310;17.016;2022-11-15T11:10:23;61.67;;;38.40;;
65071;SDS011;51663;52.310;17.016;2022-11-15T11:13:46;63.43;;;37.70;;
65071;SDS011;51663;52.310;17.016;2022-11-15T11:16:50;63.67;;;38.57;;
65071;SDS011;51663;52.310;17.016;2022-11-15T11:26:42;61.37;;;37.53;;
65071;SDS011;51663;52.310;17.016;2022-11-15T11:30:06;59.07;;;36.73;;
65071;SDS011;51663;52.310;17.016;2022-11-15T11:33:16;64.10;;;38.23;;
65071;SDS011;51663;52.310;17.016;2022-11-15T11:49:46;69.47;;;41.07;;
65071;SDS011;51663;52.310;17.016;2022-11-15T11:52:58;66.13;;;39.27;;
65071;SDS011;51663;52.310;17.016;2022-11-15T12:00:01;64.63;;;38.37;;
65071;SDS011;51663;52.310;17.016;2022-11-15T12:03:33;68.80;;;38.47;;
65071;SDS011;51663;52.310;17.016;2022-11-15T12:13:26;57.53;;;36.90;;
65071;SDS011;51663;52.310;17.016;2022-11-15T12:16:34;68.00;;;38.10;;
65071;SDS011;51663;52.310;17.016;2022-11-15T12:19:37;69.37;;;38.20;;
65071;SDS011;51663;52.310;17.016;2022-11-15T12:22:52;69.03;;;40.10;;
65071;SDS011;51663;52.310;17.016;2022-11-15T12:26:37;73.40;;;41.93;;
65071;SDS011;51663;52.310;17.016;2022-11-15T12:29:51;75.97;;;43.57;;
65071;SDS011;51663;52.310;17.016;2022-11-15T12:32:58;85.53;;;45.17;;
65071;SDS011;51663;52.310;17.016;2022-11-15T12:36:05;76.53;;;42.53;;
65071;SDS011;51663;52.310;17.016;2022-11-15T12:39:12;83.13;;;45.70;;
65071;SDS011;51663;52.310;17.016;2022-11-15T12:45:29;103.27;;;50.13;;
65071;SDS011;51663;52.310;17.016;2022-11-15T12:49:01;98.03;;;52.33;;
65071;SDS011;51663;52.310;17.016;2022-11-15T12:52:09;109.43;;;56.00;;
65071;SDS011;51663;52.310;17.016;2022-11-15T12:55:28;110.33;;;54.93;;
65071;SDS011;51663;52.310;17.016;2022-11-15T13:04:50;97.90;;;49.37;;
65071;SDS011;51663;52.310;17.016;2022-11-15T13:07:55;99.33;;;50.23;;
65071;SDS011;51663;52.310;17.016;2022-11-15T13:10:59;92.97;;;49.83;;
65071;SDS011;51663;52.310;17.016;2022-11-15T13:14:40;93.17;;;46.17;;
65071;SDS011;51663;52.310;17.016;2022-11-15T13:17:52;90.70;;;48.47;;
65071;SDS011;51663;52.310;17.016;2022-11-15T13:20:56;89.33;;;47.10;;
65071;SDS011;51663;52.310;17.016;2022-11-15T13:24:03;79.30;;;43.57;;
65071;SDS011;51663;52.310;17.016;2022-11-15T13:27:15;87.77;;;48.33;;
65071;SDS011;51663;52.310;17.016;2022-11-15T13:30:22;79.53;;;44.47;;
65071;SDS011;51663;52.310;17.016;2022-11-15T13:33:33;77.63;;;42.30;;
65071;SDS011;51663;52.310;17.016;2022-11-15T13:36:37;77.00;;;42.60;;
65071;SDS011;51663;52.310;17.016;2022-11-15T13:39:39;79.90;;;41.33;;
65071;SDS011;51663;52.310;17.016;2022-11-15T13:42:41;79.47;;;42.53;;
65071;SDS011;51663;52.310;17.016;2022-11-15T13:49:13;74.33;;;41.30;;
65071;SDS011;51663;52.310;17.016;2022-11-15T13:52:16;75.73;;;40.47;;
65071;SDS011;51663;52.310;17.016;2022-11-15T13:55:19;68.83;;;39.97;;
65071;SDS011;51663;52.310;17.016;2022-11-15T13:58:23;62.73;;;35.60;;
65071;SDS011;51663;52.310;17.016;2022-11-15T14:01:27;68.50;;;40.33;;
65071;SDS011;51663;52.310;17.016;2022-11-15T14:04:38;69.67;;;40.73;;
65071;SDS011;51663;52.310;17.016;2022-11-15T14:07:58;70.20;;;41.83;;
65071;SDS011;51663;52.310;17.016;2022-11-15T14:11:23;79.27;;;40.93;;
65071;SDS011;51663;52.310;17.016;2022-11-15T14:14:25;68.23;;;38.27;;
65071;SDS011;51663;52.310;17.016;2022-11-15T14:20:34;58.67;;;33.47;;
65071;SDS011;51663;52.310;17.016;2022-11-15T14:23:39;59.30;;;35.37;;
65071;SDS011;51663;52.310;17.016;2022-11-15T14:26:42;64.70;;;36.60;;
65071;SDS011;51663;52.310;17.016;2022-11-15T14:29:44;71.77;;;38.27;;
65071;SDS011;51663;52.310;17.016;2022-11-15T14:32:48;77.60;;;44.47;;
65071;SDS011;51663;52.310;17.016;2022-11-15T14:35:52;77.57;;;43.63;;
65071;SDS011;51663;52.310;17.016;2022-11-15T14:38:54;72.53;;;41.00;;
65071;SDS011;51663;52.310;17.016;2022-11-15T14:41:56;67.27;;;39.50;;
65071;SDS011;51663;52.310;17.016;2022-11-15T14:44:58;74.43;;;34.30;;
65071;SDS011;51663;52.310;17.016;2022-11-15T14:48:02;63.97;;;35.00;;
65071;SDS011;51663;52.310;17.016;2022-11-15T14:51:09;51.73;;;33.73;;
65071;SDS011;51663;52.310;17.016;2022-11-15T14:54:16;68.00;;;40.20;;
65071;SDS011;51663;52.310;17.016;2022-11-15T14:57:18;61.93;;;35.40;;
65071;SDS011;51663;52.310;17.016;2022-11-15T15:00:20;58.63;;;36.67;;
65071;SDS011;51663;52.310;17.016;2022-11-15T15:03:23;53.00;;;34.27;;
65071;SDS011;51663;52.310;17.016;2022-11-15T15:06:26;60.83;;;36.23;;
65071;SDS011;51663;52.310;17.016;2022-11-15T15:09:28;60.50;;;34.80;;
65071;SDS011;51663;52.310;17.016;2022-11-15T15:12:30;63.70;;;33.73;;
65071;SDS011;51663;52.310;17.016;2022-11-15T15:15:33;55.33;;;34.20;;
65071;SDS011;51663;52.310;17.016;2022-11-15T15:18:38;53.40;;;32.37;;
65071;SDS011;51663;52.310;17.016;2022-11-15T15:21:40;47.40;;;29.03;;
65071;SDS011;51663;52.310;17.016;2022-11-15T15:24:45;54.60;;;30.70;;
65071;SDS011;51663;52.310;17.016;2022-11-15T15:27:48;53.60;;;32.10;;
65071;SDS011;51663;52.310;17.016;2022-11-15T15:30:51;58.40;;;32.50;;
65071;SDS011;51663;52.310;17.016;2022-11-15T15:33:58;59.07;;;34.33;;
65071;SDS011;51663;52.310;17.016;2022-11-15T15:37:21;53.67;;;34.20;;
65071;SDS011;51663;52.310;17.016;2022-11-15T15:40:27;48.83;;;30.77;;
65071;SDS011;51663;52.310;17.016;2022-11-15T15:43:31;44.80;;;28.40;;
65071;SDS011;51663;52.310;17.016;2022-11-15T15:46:33;47.67;;;28.93;;
65071;SDS011;51663;52.310;17.016;2022-11-15T15:49:35;47.90;;;29.73;;
65071;SDS011;51663;52.310;17.016;2022-11-15T15:52:38;49.30;;;31.37;;
65071;SDS011;51663;52.310;17.016;2022-11-15T15:55:40;52.77;;;32.63;;
65071;SDS011;51663;52.310;17.016;2022-11-15T15:58:42;48.57;;;29.73;;
65071;SDS011;51663;52.310;17.016;2022-11-15T16:01:44;51.43;;;29.30;;
65071;SDS011;51663;52.310;17.016;2022-11-15T16:04:47;49.57;;;30.07;;
65071;SDS011;51663;52.310;17.016;2022-11-15T16:07:48;51.07;;;31.57;;
65071;SDS011;51663;52.310;17.016;2022-11-15T16:10:51;60.37;;;38.00;;
65071;SDS011;51663;52.310;17.016;2022-11-15T16:13:53;58.30;;;32.40;;
65071;SDS011;51663;52.310;17.016;2022-11-15T16:16:55;54.00;;;32.87;;
65071;SDS011;51663;52.310;17.016;2022-11-15T16:19:57;55.23;;;34.60;;
65071;SDS011;51663;52.310;17.016;2022-11-15T16:23:00;52.50;;;32.83;;
65071;SDS011;51663;52.310;17.016;2022-11-15T16:29:23;60.27;;;35.43;;
65071;SDS011;51663;52.310;17.016;2022-11-15T16:32:26;66.80;;;36.87;;
65071;SDS011;51663;52.310;17.016;2022-11-15T16:35:42;64.67;;;37.37;;
65071;SDS011;51663;52.310;17.016;2022-11-15T16:38:44;71.40;;;39.90;;
65071;SDS011;51663;52.310;17.016;2022-11-15T16:41:47;77.17;;;42.57;;
65071;SDS011;51663;52.310;17.016;2022-11-15T16:44:50;101.83;;;53.67;;
65071;SDS011;51663;52.310;17.016;2022-11-15T16:47:53;76.43;;;41.40;;
65071;SDS011;51663;52.310;17.016;2022-11-15T16:50:56;71.67;;;39.87;;
65071;SDS011;51663;52.310;17.016;2022-11-15T16:53:59;76.70;;;43.83;;
65071;SDS011;51663;52.310;17.016;2022-11-15T16:57:01;74.10;;;42.33;;
65071;SDS011;51663;52.310;17.016;2022-11-15T17:00:04;72.67;;;40.63;;
65071;SDS011;51663;52.310;17.016;2022-11-15T17:03:07;67.23;;;40.60;;
65071;SDS011;51663;52.310;17.016;2022-11-15T17:06:09;71.20;;;41.77;;
65071;SDS011;51663;52.310;17.016;2022-11-15T17:09:15;108.57;;;61.77;;
65071;SDS011;51663;52.310;17.016;2022-11-15T17:12:19;71.40;;;44.07;;
65071;SDS011;51663;52.310;17.016;2022-11-15T17:15:21;126.53;;;80.43;;
65071;SDS011;51663;52.310;17.016;2022-11-15T17:18:25;59.97;;;34.80;;
65071;SDS011;51663;52.310;17.016;2022-11-15T17:21:27;56.23;;;34.33;;
65071;SDS011;51663;52.310;17.016;2022-11-15T17:24:34;61.40;;;36.70;;
65071;SDS011;51663;52.310;17.016;2022-11-15T17:27:36;67.20;;;39.13;;
65071;SDS011;51663;52.310;17.016;2022-11-15T17:30:40;58.23;;;35.27;;
65071;SDS011;51663;52.310;17.016;2022-11-15T17:33:43;54.23;;;33.17;;
65071;SDS011;51663;52.310;17.016;2022-11-15T17:36:45;55.67;;;34.03;;
65071;SDS011;51663;52.310;17.016;2022-11-15T17:39:48;51.17;;;30.83;;
65071;SDS011;51663;52.310;17.016;2022-11-15T17:42:50;63.93;;;35.50;;
65071;SDS011;51663;52.310;17.016;2022-11-15T17:45:53;67.80;;;35.97;;
65071;SDS011;51663;52.310;17.016;2022-11-15T17:48:56;61.90;;;35.17;;
65071;SDS011;51663;52.310;17.016;2022-11-15T17:51:58;54.70;;;32.53;;
65071;SDS011;51663;52.310;17.016;2022-11-15T17:55:00;65.50;;;35.60;;
65071;SDS011;51663;52.310;17.016;2022-11-15T17:58:02;58.00;;;32.83;;
65071;SDS011;51663;52.310;17.016;2022-11-15T18:04:13;61.57;;;34.70;;
65071;SDS011;51663;52.310;17.016;2022-11-15T18:07:16;61.20;;;34.80;;
65071;SDS011;51663;52.310;17.016;2022-11-15T18:10:18;69.97;;;38.67;;
65071;SDS011;51663;52.310;17.016;2022-11-15T18:13:20;71.43;;;37.97;;
65071;SDS011;51663;52.310;17.016;2022-11-15T18:16:25;70.20;;;38.27;;
65071;SDS011;51663;52.310;17.016;2022-11-15T18:19:28;73.67;;;39.87;;
65071;SDS011;51663;52.310;17.016;2022-11-15T18:22:30;67.17;;;38.23;;
65071;SDS011;51663;52.310;17.016;2022-11-15T18:25:33;72.57;;;39.27;;
65071;SDS011;51663;52.310;17.016;2022-11-15T18:28:35;72.67;;;39.37;;
65071;SDS011;51663;52.310;17.016;2022-11-15T18:31:40;65.13;;;34.77;;
65071;SDS011;51663;52.310;17.016;2022-11-15T18:34:48;65.57;;;35.43;;
65071;SDS011;51663;52.310;17.016;2022-11-15T18:37:50;59.67;;;31.17;;
65071;SDS011;51663;52.310;17.016;2022-11-15T18:40:52;60.43;;;34.73;;
65071;SDS011;51663;52.310;17.016;2022-11-15T18:43:57;66.83;;;34.83;;
65071;SDS011;51663;52.310;17.016;2022-11-15T18:47:01;56.87;;;33.13;;
65071;SDS011;51663;52.310;17.016;2022-11-15T18:50:03;60.33;;;33.83;;
65071;SDS011;51663;52.310;17.016;2022-11-15T18:53:05;61.53;;;34.23;;
65071;SDS011;51663;52.310;17.016;2022-11-15T18:59:11;63.37;;;35.33;;
65071;SDS011;51663;52.310;17.016;2022-11-15T19:02:14;60.07;;;31.20;;
65071;SDS011;51663;52.310;17.016;2022-11-15T19:05:16;64.83;;;35.57;;
65071;SDS011;51663;52.310;17.016;2022-11-15T19:08:22;63.00;;;33.57;;
65071;SDS011;51663;52.310;17.016;2022-11-15T19:11:28;60.73;;;31.83;;
65071;SDS011;51663;52.310;17.016;2022-11-15T19:14:31;57.40;;;32.60;;
65071;SDS011;51663;52.310;17.016;2022-11-15T19:17:33;59.17;;;32.40;;
65071;SDS011;51663;52.310;17.016;2022-11-15T19:20:36;56.23;;;30.57;;
65071;SDS011;51663;52.310;17.016;2022-11-15T19:23:40;56.93;;;31.60;;
65071;SDS011;51663;52.310;17.016;2022-11-15T19:26:44;56.17;;;29.27;;
65071;SDS011;51663;52.310;17.016;2022-11-15T19:29:46;60.00;;;31.13;;
65071;SDS011;51663;52.310;17.016;2022-11-15T19:32:49;54.63;;;29.27;;
65071;SDS011;51663;52.310;17.016;2022-11-15T19:36:03;54.37;;;31.13;;
65071;SDS011;51663;52.310;17.016;2022-11-15T19:39:15;58.03;;;30.23;;
65071;SDS011;51663;52.310;17.016;2022-11-15T19:42:19;64.20;;;33.40;;
65071;SDS011;51663;52.310;17.016;2022-11-15T19:45:21;65.20;;;34.13;;
65071;SDS011;51663;52.310;17.016;2022-11-15T19:48:24;65.80;;;33.93;;
65071;SDS011;51663;52.310;17.016;2022-11-15T19:51:29;65.33;;;34.13;;